createdAt,value
2022-08-18T00:00:02.876Z,21.00
2022-08-18T00:01:02.889Z,21.00
2022-08-18T00:02:03.021Z,21.00
2022-08-18T00:03:06.752Z,21.00
2022-08-18T00:04:03.153Z,20.90
2022-08-18T00:05:02.978Z,20.90
2022-08-18T00:06:03.074Z,20.90
2022-08-18T00:07:03.022Z,20.90
2022-08-18T00:08:03.170Z,20.90
2022-08-18T00:09:03.366Z,20.90
2022-08-18T00:10:03.710Z,20.80
2022-08-18T00:11:02.831Z,20.80
2022-08-18T00:12:02.872Z,20.80
2022-08-18T00:13:02.924Z,20.80
2022-08-18T00:14:03.008Z,20.80
2022-08-18T00:15:03.117Z,20.70
2022-08-18T00:16:03.148Z,20.70
2022-08-18T00:17:03.265Z,20.70
2022-08-18T00:18:03.446Z,20.70
2022-08-18T00:19:07.181Z,20.70
2022-08-18T00:20:02.699Z,20.70
2022-08-18T00:21:02.731Z,20.70
2022-08-18T00:22:02.831Z,20.70
2022-08-18T00:23:03.020Z,20.70
2022-08-18T00:24:03.058Z,20.60
2022-08-18T00:25:03.118Z,20.60
2022-08-18T00:26:03.091Z,20.60
2022-08-18T00:27:03.223Z,20.60
2022-08-18T00:28:03.153Z,20.60
2022-08-18T00:29:03.370Z,20.60
2022-08-18T00:30:03.425Z,20.50
2022-08-18T00:31:03.435Z,20.50
2022-08-18T00:32:03.501Z,20.50
2022-08-18T00:33:02.662Z,20.50
2022-08-18T00:34:02.781Z,20.50
2022-08-18T00:35:02.845Z,20.50
2022-08-18T00:36:02.817Z,20.50
2022-08-18T00:37:02.894Z,20.50
2022-08-18T00:38:02.840Z,20.50
2022-08-18T00:39:02.980Z,20.50
2022-08-18T00:40:03.054Z,20.50
2022-08-18T00:41:03.231Z,20.50
2022-08-18T00:42:03.291Z,20.50
2022-08-18T00:43:03.328Z,20.40
2022-08-18T00:44:03.320Z,20.40
2022-08-18T00:45:03.355Z,20.40
2022-08-18T00:46:03.433Z,20.40
2022-08-18T00:47:03.597Z,20.40
2022-08-18T00:48:03.630Z,20.40
2022-08-18T00:49:03.586Z,20.40
2022-08-18T00:50:03.550Z,20.40
2022-08-18T00:51:02.603Z,20.40
2022-08-18T00:52:02.656Z,20.40
2022-08-18T00:53:02.681Z,20.40
2022-08-18T00:54:02.791Z,20.40
2022-08-18T00:55:02.878Z,20.40
2022-08-18T00:56:03.420Z,20.30
2022-08-18T00:57:03.565Z,20.30
2022-08-18T00:58:02.637Z,20.30
2022-08-18T00:59:02.750Z,20.30
2022-08-18T01:00:02.781Z,20.30
2022-08-18T01:01:03.015Z,20.30
2022-08-18T01:02:02.935Z,20.30
2022-08-18T01:03:03.087Z,20.30
2022-08-18T01:04:03.117Z,20.30
2022-08-18T01:05:03.350Z,20.30
2022-08-18T01:06:03.418Z,20.30
2022-08-18T01:07:03.542Z,20.30
2022-08-18T01:08:02.638Z,20.30
2022-08-18T01:09:02.710Z,20.30
2022-08-18T01:10:02.748Z,20.30
2022-08-18T01:11:02.856Z,20.30
2022-08-18T01:12:20.828Z,20.30
2022-08-18T01:13:03.574Z,20.30
2022-08-18T01:14:02.686Z,20.30
2022-08-18T01:15:02.778Z,20.20
2022-08-18T01:16:03.403Z,20.20
2022-08-18T01:17:03.477Z,20.20
2022-08-18T01:18:03.472Z,20.20
2022-08-18T01:19:03.477Z,20.20
2022-08-18T01:20:03.480Z,20.20
2022-08-18T01:21:03.454Z,20.10
2022-08-18T01:22:02.630Z,20.20
2022-08-18T01:23:02.653Z,20.10
2022-08-18T01:24:02.726Z,20.10
2022-08-18T01:25:02.738Z,20.10
2022-08-18T01:26:02.796Z,20.10
2022-08-18T01:27:02.869Z,20.10
2022-08-18T01:28:03.052Z,20.10
2022-08-18T01:29:03.122Z,20.10
2022-08-18T01:30:03.212Z,20.00
2022-08-18T01:31:03.284Z,20.00
2022-08-18T01:32:03.413Z,20.00
2022-08-18T01:33:02.638Z,20.00
2022-08-18T01:34:02.639Z,20.00
2022-08-18T01:35:02.694Z,20.00
2022-08-18T01:36:02.762Z,20.00
2022-08-18T01:37:02.876Z,20.00
2022-08-18T01:38:02.893Z,20.00
2022-08-18T01:39:02.943Z,20.00
2022-08-18T01:41:00.603Z,20.00
2022-08-18T01:41:25.507Z,20.00
2022-08-18T01:42:03.172Z,20.00
2022-08-18T01:43:03.153Z,20.00
2022-08-18T01:44:03.346Z,20.00
2022-08-18T01:45:03.349Z,20.00
2022-08-18T01:46:03.488Z,20.00
2022-08-18T01:47:03.517Z,19.90
2022-08-18T01:48:02.966Z,19.90
2022-08-18T01:49:02.750Z,19.90
2022-08-18T01:50:02.890Z,19.90
2022-08-18T01:51:02.999Z,19.90
2022-08-18T01:52:03.039Z,19.90
2022-08-18T01:53:02.984Z,19.90
2022-08-18T01:54:03.108Z,19.90
2022-08-18T01:55:03.248Z,19.90
2022-08-18T01:56:03.466Z,19.90
2022-08-18T01:57:03.481Z,19.80
2022-08-18T01:58:03.458Z,19.80
2022-08-18T01:59:02.674Z,19.80
2022-08-18T02:00:02.679Z,19.80
2022-08-18T02:01:02.772Z,19.80
2022-08-18T02:02:02.803Z,19.80
2022-08-18T02:03:03.111Z,19.80
2022-08-18T02:04:23.635Z,19.80
2022-08-18T02:05:03.035Z,19.80
2022-08-18T02:06:03.064Z,19.80
2022-08-18T02:07:04.246Z,19.70
2022-08-18T02:08:03.269Z,19.70
2022-08-18T02:09:03.310Z,19.70
2022-08-18T02:10:03.329Z,19.70
2022-08-18T02:11:03.463Z,19.70
2022-08-18T02:12:03.523Z,19.70
2022-08-18T02:13:03.610Z,19.70
2022-08-18T02:14:03.082Z,19.70
2022-08-18T02:15:03.259Z,19.70
2022-08-18T02:16:03.416Z,19.70
2022-08-18T02:17:03.468Z,19.70
2022-08-18T02:18:03.489Z,19.70
2022-08-18T02:19:03.598Z,19.70
2022-08-18T02:20:02.707Z,19.70
2022-08-18T02:21:02.816Z,19.70
2022-08-18T02:22:02.975Z,19.70
2022-08-18T02:23:03.008Z,19.70
2022-08-18T02:24:03.016Z,19.70
2022-08-18T02:25:03.073Z,19.70
2022-08-18T02:26:03.190Z,19.70
2022-08-18T02:27:03.304Z,19.70
2022-08-18T02:28:03.465Z,19.70
2022-08-18T02:29:03.485Z,19.70
2022-08-18T02:30:03.632Z,19.70
2022-08-18T02:31:02.631Z,19.70
2022-08-18T02:32:03.156Z,19.70
2022-08-18T02:33:03.214Z,19.70
2022-08-18T02:34:03.219Z,19.70
2022-08-18T02:35:03.349Z,19.70
2022-08-18T02:36:03.308Z,19.70
2022-08-18T02:37:03.494Z,19.70
2022-08-18T02:38:03.812Z,19.70
2022-08-18T02:39:02.636Z,19.70
2022-08-18T02:40:02.742Z,19.70
2022-08-18T02:41:02.734Z,19.70
2022-08-18T02:42:02.784Z,19.70
2022-08-18T02:43:02.865Z,19.70
2022-08-18T02:44:02.941Z,19.70
2022-08-18T02:45:02.930Z,19.70
2022-08-18T02:46:02.966Z,19.70
2022-08-18T02:47:03.122Z,19.70
2022-08-18T02:48:03.250Z,19.70
2022-08-18T02:49:03.256Z,19.70
2022-08-18T02:50:03.269Z,19.70
2022-08-18T02:51:03.330Z,19.70
2022-08-18T02:52:03.328Z,19.70
2022-08-18T02:53:03.358Z,19.70
2022-08-18T02:54:03.546Z,19.70
2022-08-18T02:55:03.501Z,19.70
2022-08-18T02:56:02.640Z,19.70
2022-08-18T02:57:02.733Z,19.60
2022-08-18T02:58:02.857Z,19.60
2022-08-18T02:59:02.966Z,19.60
2022-08-18T03:00:02.951Z,19.60
2022-08-18T03:01:03.151Z,19.60
2022-08-18T03:02:03.117Z,19.60
2022-08-18T03:03:03.210Z,19.60
2022-08-18T03:04:03.210Z,19.60
2022-08-18T03:05:03.445Z,19.50
2022-08-18T03:06:03.425Z,19.50
2022-08-18T03:07:03.483Z,19.50
2022-08-18T03:08:03.487Z,19.50
2022-08-18T03:09:02.695Z,19.50
2022-08-18T03:10:05.834Z,19.50
2022-08-18T03:11:02.810Z,19.50
2022-08-18T03:12:02.817Z,19.50
2022-08-18T03:13:02.896Z,19.50
2022-08-18T03:14:02.956Z,19.50
2022-08-18T03:15:03.015Z,19.50
2022-08-18T03:16:03.027Z,19.50
2022-08-18T03:17:02.987Z,19.40
2022-08-18T03:18:03.188Z,19.40
2022-08-18T03:19:03.389Z,19.40
2022-08-18T03:20:03.406Z,19.40
2022-08-18T03:21:03.381Z,19.40
2022-08-18T03:22:03.617Z,19.40
2022-08-18T03:23:05.710Z,19.40
2022-08-18T03:24:03.465Z,19.40
2022-08-18T03:25:02.618Z,19.40
2022-08-18T03:26:02.704Z,19.40
2022-08-18T03:27:02.663Z,19.40
2022-08-18T03:28:02.671Z,19.40
2022-08-18T03:29:02.726Z,19.40
2022-08-18T03:30:02.737Z,19.40
2022-08-18T03:31:02.830Z,19.40
2022-08-18T03:32:02.943Z,19.40
2022-08-18T03:33:03.013Z,19.40
2022-08-18T03:34:04.422Z,19.40
2022-08-18T03:35:03.460Z,19.40
2022-08-18T03:36:03.529Z,19.40
2022-08-18T03:37:03.655Z,19.40
2022-08-18T03:38:02.677Z,19.40
2022-08-18T03:39:02.813Z,19.40
2022-08-18T03:40:02.852Z,19.40
2022-08-18T03:41:02.938Z,19.40
2022-08-18T03:42:03.004Z,19.40
2022-08-18T03:43:02.893Z,19.40
2022-08-18T03:44:03.267Z,19.40
2022-08-18T03:45:12.437Z,19.40
2022-08-18T03:46:03.311Z,19.30
2022-08-18T03:47:03.412Z,19.30
2022-08-18T03:48:02.631Z,19.30
2022-08-18T03:49:02.839Z,19.30
2022-08-18T03:50:02.872Z,19.30
2022-08-18T03:51:05.336Z,19.30
2022-08-18T03:52:02.978Z,19.30
2022-08-18T03:53:02.997Z,19.30
2022-08-18T03:54:03.168Z,19.30
2022-08-18T03:55:03.235Z,19.30
2022-08-18T03:56:03.246Z,19.30
2022-08-18T03:57:03.282Z,19.20
2022-08-18T03:58:03.323Z,19.20
2022-08-18T03:59:03.435Z,19.20
2022-08-18T04:00:03.503Z,19.20
2022-08-18T04:01:03.540Z,19.20
2022-08-18T04:02:03.532Z,19.20
2022-08-18T04:03:03.579Z,19.20
2022-08-18T04:04:02.761Z,19.20
2022-08-18T04:05:02.800Z,19.20
2022-08-18T04:06:02.979Z,19.20
2022-08-18T04:07:03.045Z,19.20
2022-08-18T04:08:03.189Z,19.20
2022-08-18T04:09:03.211Z,19.20
2022-08-18T04:10:03.257Z,19.20
2022-08-18T04:11:04.677Z,19.20
2022-08-18T04:12:03.366Z,19.20
2022-08-18T04:13:03.544Z,19.20
2022-08-18T04:14:03.655Z,19.20
2022-08-18T04:15:02.644Z,19.20
2022-08-18T04:16:02.705Z,19.20
2022-08-18T04:17:02.972Z,19.20
2022-08-18T04:18:03.363Z,19.20
2022-08-18T04:19:03.048Z,19.20
2022-08-18T04:20:03.027Z,19.20
2022-08-18T04:21:03.163Z,19.20
2022-08-18T04:22:03.177Z,19.20
2022-08-18T04:23:03.174Z,19.20
2022-08-18T04:24:03.345Z,19.20
2022-08-18T04:25:03.696Z,19.20
2022-08-18T04:26:02.850Z,19.20
2022-08-18T04:27:02.923Z,19.20
2022-08-18T04:28:02.848Z,19.20
2022-08-18T04:29:03.056Z,19.20
2022-08-18T04:30:03.135Z,19.20
2022-08-18T04:31:03.106Z,19.20
2022-08-18T04:32:03.052Z,19.20
2022-08-18T04:33:03.132Z,19.20
2022-08-18T04:34:03.329Z,19.20
2022-08-18T04:35:03.276Z,19.20
2022-08-18T04:36:03.185Z,19.20
2022-08-18T04:37:03.202Z,19.20
2022-08-18T04:38:03.209Z,19.20
2022-08-18T04:39:03.203Z,19.30
2022-08-18T04:40:03.416Z,19.30
2022-08-18T04:41:03.404Z,19.30
2022-08-18T04:42:03.558Z,19.30
2022-08-18T04:43:03.678Z,19.30
2022-08-18T04:44:02.694Z,19.30
2022-08-18T04:45:02.694Z,19.30
2022-08-18T04:46:02.620Z,19.30
2022-08-18T04:47:02.738Z,19.30
2022-08-18T04:48:02.762Z,19.30
2022-08-18T04:49:02.759Z,19.30
2022-08-18T04:50:02.776Z,19.30
2022-08-18T04:51:02.911Z,19.40
2022-08-18T04:52:22.059Z,19.40
2022-08-18T04:53:03.340Z,19.40
2022-08-18T04:54:03.296Z,19.40
2022-08-18T04:55:03.376Z,19.40
2022-08-18T04:56:03.346Z,19.40
2022-08-18T04:57:03.340Z,19.40
2022-08-18T04:58:03.551Z,19.40
2022-08-18T04:59:03.591Z,19.40
2022-08-18T05:00:02.753Z,19.40
2022-08-18T05:01:02.792Z,19.50
2022-08-18T05:02:02.835Z,19.50
2022-08-18T05:03:02.959Z,19.50
2022-08-18T05:04:03.064Z,19.50
2022-08-18T05:05:03.128Z,19.50
2022-08-18T05:06:03.141Z,19.50
2022-08-18T05:07:04.187Z,19.50
2022-08-18T05:08:03.142Z,19.50
2022-08-18T05:09:03.234Z,19.60
2022-08-18T05:10:03.231Z,19.60
2022-08-18T05:11:04.173Z,19.60
2022-08-18T05:12:02.805Z,19.60
2022-08-18T05:13:02.998Z,19.60
2022-08-18T05:14:02.979Z,19.60
2022-08-18T05:15:03.057Z,19.60
2022-08-18T05:16:10.408Z,19.60
2022-08-18T05:17:03.275Z,19.60
2022-08-18T05:18:03.384Z,19.60
2022-08-18T05:19:03.420Z,19.60
2022-08-18T05:20:03.503Z,19.60
2022-08-18T05:21:02.741Z,19.60
2022-08-18T05:22:02.909Z,19.60
2022-08-18T05:23:02.778Z,19.60
2022-08-18T05:24:02.838Z,19.60
2022-08-18T05:25:03.045Z,19.60
2022-08-18T05:26:03.008Z,19.60
2022-08-18T05:27:03.168Z,19.60
2022-08-18T05:28:03.118Z,19.60
2022-08-18T05:29:04.520Z,19.60
2022-08-18T05:30:03.234Z,19.60
2022-08-18T05:31:03.400Z,19.70
2022-08-18T05:32:03.520Z,19.60
2022-08-18T05:33:03.516Z,19.60
2022-08-18T05:34:03.544Z,19.70
2022-08-18T05:35:02.785Z,19.70
2022-08-18T05:36:02.687Z,19.70
2022-08-18T05:37:02.694Z,19.70
2022-08-18T05:38:02.807Z,19.70
2022-08-18T05:39:02.838Z,19.70
2022-08-18T05:40:06.328Z,19.70
2022-08-18T05:41:03.035Z,19.70
2022-08-18T05:42:03.127Z,19.70
2022-08-18T05:43:03.329Z,19.80
2022-08-18T05:44:03.344Z,19.80
2022-08-18T05:45:03.456Z,19.80
2022-08-18T05:46:02.672Z,19.80
2022-08-18T05:47:02.770Z,19.80
2022-08-18T05:48:02.664Z,19.80
2022-08-18T05:49:02.653Z,19.80
2022-08-18T05:50:02.810Z,19.80
2022-08-18T05:51:02.926Z,19.80
2022-08-18T05:52:03.053Z,19.80
2022-08-18T05:53:02.979Z,19.80
2022-08-18T05:54:03.108Z,19.80
2022-08-18T05:55:03.083Z,19.80
2022-08-18T05:56:03.218Z,19.90
2022-08-18T05:57:03.424Z,19.90
2022-08-18T05:58:03.534Z,19.90
2022-08-18T05:59:03.557Z,19.90
2022-08-18T06:00:02.751Z,19.90
2022-08-18T06:01:02.808Z,19.90
2022-08-18T06:02:02.872Z,20.00
2022-08-18T06:03:02.985Z,20.00
2022-08-18T06:04:03.119Z,20.00
2022-08-18T06:05:03.195Z,20.00
2022-08-18T06:06:03.198Z,20.00
2022-08-18T06:07:03.216Z,20.00
2022-08-18T06:08:03.250Z,20.00
2022-08-18T06:09:03.269Z,20.00
2022-08-18T06:10:03.447Z,20.00
2022-08-18T06:11:03.442Z,20.00
2022-08-18T06:12:03.476Z,20.00
2022-08-18T06:13:03.646Z,20.00
2022-08-18T06:14:02.598Z,20.00
2022-08-18T06:15:05.633Z,20.10
2022-08-18T06:16:02.693Z,20.10
2022-08-18T06:17:02.725Z,20.10
2022-08-18T06:18:02.887Z,20.10
2022-08-18T06:19:03.039Z,20.10
2022-08-18T06:20:03.098Z,20.10
2022-08-18T06:21:03.207Z,20.10
2022-08-18T06:22:03.248Z,20.10
2022-08-18T06:23:03.209Z,20.10
2022-08-18T06:24:03.488Z,20.10
2022-08-18T06:25:03.465Z,20.10
2022-08-18T06:26:03.623Z,20.10
2022-08-18T06:27:03.557Z,20.10
2022-08-18T06:28:02.664Z,20.10
2022-08-18T06:29:02.740Z,20.20
2022-08-18T06:30:02.800Z,20.20
2022-08-18T06:31:02.857Z,20.20
2022-08-18T06:32:03.035Z,20.20
2022-08-18T06:33:03.096Z,20.20
2022-08-18T06:34:03.168Z,20.20
2022-08-18T06:35:03.175Z,20.20
2022-08-18T06:36:03.182Z,20.20
2022-08-18T06:37:03.149Z,20.20
2022-08-18T06:38:03.216Z,20.20
2022-08-18T06:39:03.128Z,20.10
2022-08-18T06:40:03.386Z,20.10
2022-08-18T06:41:03.226Z,20.10
2022-08-18T06:42:03.335Z,20.10
2022-08-18T06:43:03.438Z,20.10
2022-08-18T06:44:03.570Z,20.10
2022-08-18T06:45:03.493Z,20.10
2022-08-18T06:46:03.592Z,20.10
2022-08-18T06:47:03.525Z,20.10
2022-08-18T06:48:03.591Z,20.10
2022-08-18T06:49:03.579Z,20.10
2022-08-18T06:50:03.593Z,20.10
2022-08-18T06:51:02.698Z,20.10
2022-08-18T06:52:02.721Z,20.10
2022-08-18T06:53:02.889Z,20.10
2022-08-18T06:54:02.923Z,20.10
2022-08-18T06:55:02.922Z,20.10
2022-08-18T06:56:03.017Z,20.10
2022-08-18T06:57:03.007Z,20.10
2022-08-18T06:58:02.942Z,20.10
2022-08-18T06:59:03.075Z,20.10
2022-08-18T07:00:03.170Z,20.10
2022-08-18T07:01:03.115Z,20.20
2022-08-18T07:02:03.132Z,20.20
2022-08-18T07:03:03.100Z,20.20
2022-08-18T07:04:03.538Z,20.20
2022-08-18T07:05:03.671Z,20.20
2022-08-18T07:06:02.671Z,20.20
2022-08-18T07:07:02.642Z,20.30
2022-08-18T07:08:02.763Z,20.30
2022-08-18T07:09:02.896Z,20.30
2022-08-18T07:10:02.926Z,20.30
2022-08-18T07:11:02.961Z,20.30
2022-08-18T07:12:02.935Z,20.40
2022-08-18T07:13:02.939Z,20.40
2022-08-18T07:14:15.871Z,20.40
2022-08-18T07:15:03.100Z,20.40
2022-08-18T07:16:03.576Z,20.40
2022-08-18T07:17:03.594Z,20.50
2022-08-18T07:18:02.614Z,20.50
2022-08-18T07:19:02.820Z,20.50
2022-08-18T07:20:02.796Z,20.50
2022-08-18T07:21:02.792Z,20.50
2022-08-18T07:22:02.829Z,20.50
2022-08-18T07:23:02.831Z,20.50
2022-08-18T07:24:23.504Z,20.50
2022-08-18T07:25:05.236Z,20.50
2022-08-18T07:26:03.085Z,20.60
2022-08-18T07:27:03.249Z,20.60
2022-08-18T07:28:03.210Z,20.60
2022-08-18T07:29:03.290Z,20.60
2022-08-18T07:30:03.369Z,20.60
2022-08-18T07:31:16.271Z,20.60
2022-08-18T07:32:03.497Z,20.60
2022-08-18T07:33:03.495Z,20.60
2022-08-18T07:34:03.661Z,20.60
2022-08-18T07:35:02.615Z,20.60
2022-08-18T07:36:02.812Z,20.60
2022-08-18T07:37:02.837Z,20.60
2022-08-18T07:38:13.914Z,20.60
2022-08-18T07:39:02.721Z,20.60
2022-08-18T07:40:02.943Z,20.60
2022-08-18T07:41:02.971Z,20.60
2022-08-18T07:42:03.054Z,20.60
2022-08-18T07:43:03.136Z,20.60
2022-08-18T07:44:03.190Z,20.50
2022-08-18T07:45:03.227Z,20.50
2022-08-18T07:46:03.189Z,20.50
2022-08-18T07:47:03.341Z,20.50
2022-08-18T07:48:15.628Z,20.50
2022-08-18T07:49:05.597Z,20.50
2022-08-18T07:50:23.278Z,20.50
2022-08-18T07:51:05.370Z,20.50
2022-08-18T07:52:03.961Z,20.50
2022-08-18T07:53:02.674Z,20.50
2022-08-18T07:54:02.667Z,20.40
2022-08-18T07:55:02.804Z,20.40
2022-08-18T07:56:02.698Z,20.40
2022-08-18T07:57:02.863Z,20.30
2022-08-18T07:58:02.809Z,20.30
2022-08-18T07:59:02.872Z,20.30
2022-08-18T08:00:02.932Z,20.20
2022-08-18T08:01:02.918Z,20.20
2022-08-18T08:02:02.937Z,20.20
2022-08-18T08:03:02.957Z,20.10
2022-08-18T08:04:03.008Z,20.10
2022-08-18T08:05:03.039Z,20.10
2022-08-18T08:06:03.230Z,20.10
2022-08-18T08:07:23.242Z,20.10
2022-08-18T08:08:03.239Z,20.10
2022-08-18T08:09:03.466Z,20.00
2022-08-18T08:10:03.401Z,20.00
2022-08-18T08:11:03.545Z,20.00
2022-08-18T08:12:03.545Z,20.00
2022-08-18T08:13:09.045Z,20.00
2022-08-18T08:14:02.795Z,20.00
2022-08-18T08:15:02.775Z,20.00
2022-08-18T08:16:02.821Z,20.00
2022-08-18T08:17:02.994Z,20.00
2022-08-18T08:18:03.152Z,20.00
2022-08-18T08:19:03.338Z,19.90
2022-08-18T08:20:03.395Z,19.90
2022-08-18T08:21:03.530Z,19.90
2022-08-18T08:22:03.507Z,20.00
2022-08-18T08:23:03.619Z,20.00
2022-08-18T08:24:02.835Z,20.00
2022-08-18T08:25:02.763Z,20.00
2022-08-18T08:26:02.860Z,20.00
2022-08-18T08:27:02.978Z,20.00
2022-08-18T08:28:02.965Z,20.00
2022-08-18T08:29:03.007Z,20.00
2022-08-18T08:30:03.093Z,20.00
2022-08-18T08:31:19.337Z,20.00
2022-08-18T08:32:03.270Z,20.00
2022-08-18T08:33:03.343Z,20.00
2022-08-18T08:34:05.924Z,20.00
2022-08-18T08:35:03.378Z,20.10
2022-08-18T08:36:03.477Z,20.10
2022-08-18T08:37:03.914Z,20.10
2022-08-18T08:38:17.416Z,20.10
2022-08-18T08:39:03.031Z,20.10
2022-08-18T08:40:03.090Z,20.10
2022-08-18T08:41:03.058Z,20.10
2022-08-18T08:42:29.951Z,20.10
2022-08-18T08:43:03.093Z,20.10
2022-08-18T08:44:03.234Z,20.10
2022-08-18T08:45:03.372Z,20.10
2022-08-18T08:46:03.473Z,20.10
2022-08-18T08:47:03.497Z,20.10
2022-08-18T08:48:08.685Z,20.10
2022-08-18T08:49:03.550Z,20.10
2022-08-18T08:50:02.677Z,20.10
2022-08-18T08:51:02.750Z,20.10
2022-08-18T08:52:02.740Z,20.10
2022-08-18T08:53:02.804Z,20.10
2022-08-18T08:54:02.904Z,20.10
2022-08-18T08:55:02.899Z,20.10
2022-08-18T08:56:03.027Z,20.10
2022-08-18T08:57:02.901Z,20.00
2022-08-18T08:58:03.003Z,20.00
2022-08-18T08:59:02.975Z,20.00
2022-08-18T09:00:02.942Z,20.00
2022-08-18T09:01:03.043Z,20.00
2022-08-18T09:02:03.188Z,20.00
2022-08-18T09:03:03.259Z,20.00
2022-08-18T09:04:03.341Z,19.90
2022-08-18T09:05:08.121Z,20.00
2022-08-18T09:06:03.366Z,20.00
2022-08-18T09:07:03.426Z,20.00
2022-08-18T09:08:03.525Z,20.00
2022-08-18T09:09:03.624Z,20.00
2022-08-18T09:10:02.623Z,20.00
2022-08-18T09:11:02.734Z,20.00
2022-08-18T09:12:02.932Z,20.00
2022-08-18T09:13:02.896Z,20.10
2022-08-18T09:14:03.003Z,20.10
2022-08-18T09:15:03.061Z,20.10
2022-08-18T09:16:11.123Z,20.10
2022-08-18T09:17:03.320Z,20.10
2022-08-18T09:18:03.313Z,20.20
2022-08-18T09:19:03.423Z,20.20
2022-08-18T09:20:03.470Z,20.20
2022-08-18T09:21:03.576Z,20.20
2022-08-18T09:22:03.585Z,20.20
2022-08-18T09:23:02.775Z,20.20
2022-08-18T09:24:02.684Z,20.20
2022-08-18T09:25:02.876Z,20.30
2022-08-18T09:26:02.936Z,20.30
2022-08-18T09:27:03.057Z,20.30
2022-08-18T09:28:11.400Z,20.30
2022-08-18T09:29:03.299Z,20.30
2022-08-18T09:30:03.341Z,20.30
2022-08-18T09:31:03.276Z,20.30
2022-08-18T09:32:03.369Z,20.30
2022-08-18T09:33:03.495Z,20.30
2022-08-18T09:34:07.335Z,20.30
2022-08-18T09:35:05.408Z,20.30
2022-08-18T09:36:02.678Z,20.30
2022-08-18T09:37:02.738Z,20.30
2022-08-18T09:38:02.815Z,20.30
2022-08-18T09:39:02.796Z,20.30
2022-08-18T09:40:11.144Z,20.30
2022-08-18T09:41:03.383Z,20.30
2022-08-18T09:42:03.238Z,20.30
2022-08-18T09:43:03.304Z,20.30
2022-08-18T09:44:03.018Z,20.30
2022-08-18T09:45:03.024Z,20.30
2022-08-18T09:46:03.150Z,20.40
2022-08-18T09:47:03.266Z,20.40
2022-08-18T09:48:03.214Z,20.40
2022-08-18T09:49:03.302Z,20.40
2022-08-18T09:50:03.294Z,20.40
2022-08-18T09:51:03.290Z,20.40
2022-08-18T09:52:03.481Z,20.40
2022-08-18T09:53:04.503Z,20.50
2022-08-18T09:54:03.534Z,20.50
2022-08-18T09:55:03.471Z,20.50
2022-08-18T09:56:05.228Z,20.50
2022-08-18T09:57:03.455Z,20.50
2022-08-18T09:58:02.656Z,20.50
2022-08-18T09:59:03.041Z,20.50
2022-08-18T10:00:02.866Z,20.50
2022-08-18T10:01:03.054Z,20.50
2022-08-18T10:02:03.153Z,20.50
2022-08-18T10:03:03.200Z,20.50
2022-08-18T10:04:03.257Z,20.50
2022-08-18T10:05:03.267Z,20.50
2022-08-18T10:06:03.327Z,20.50
2022-08-18T10:07:03.459Z,20.50
2022-08-18T10:08:03.770Z,20.50
2022-08-18T10:09:14.521Z,20.50
2022-08-18T10:10:03.469Z,20.50
2022-08-18T10:11:08.942Z,20.50
2022-08-18T10:12:02.867Z,20.50
2022-08-18T10:13:02.937Z,20.50
2022-08-18T10:14:03.118Z,20.50
2022-08-18T10:15:03.120Z,20.50
2022-08-18T10:17:22.023Z,20.60
2022-08-18T10:18:03.332Z,20.50
2022-08-18T10:19:03.408Z,20.60
2022-08-18T10:20:03.441Z,20.60
2022-08-18T10:21:03.483Z,20.60
2022-08-18T10:22:03.673Z,20.60
2022-08-18T10:23:03.600Z,20.60
2022-08-18T10:25:21.251Z,20.60
2022-08-18T10:26:04.362Z,20.60
2022-08-18T10:27:02.851Z,20.60
2022-08-18T10:28:02.944Z,20.70
2022-08-18T10:29:02.881Z,20.70
2022-08-18T10:30:03.307Z,20.70
2022-08-18T10:31:05.775Z,20.70
2022-08-18T10:32:03.066Z,20.70
2022-08-18T10:33:10.867Z,20.70
2022-08-18T10:34:08.411Z,20.80
2022-08-18T10:35:03.155Z,20.80
2022-08-18T10:36:03.370Z,20.80
2022-08-18T10:37:06.268Z,20.80
2022-08-18T10:38:03.392Z,20.90
2022-08-18T10:39:03.503Z,20.90
2022-08-18T10:40:03.489Z,20.90
2022-08-18T10:41:09.555Z,20.90
2022-08-18T10:42:02.632Z,20.90
2022-08-18T10:43:07.475Z,21.00
2022-08-18T10:44:10.552Z,21.00
2022-08-18T10:45:03.029Z,21.00
2022-08-18T10:47:03.215Z,21.00
2022-08-18T10:48:03.270Z,21.00
2022-08-18T10:49:04.371Z,21.00
2022-08-18T10:50:03.374Z,21.00
2022-08-18T10:51:04.499Z,21.00
2022-08-18T10:52:03.357Z,21.00
2022-08-18T10:53:24.509Z,21.00
2022-08-18T10:54:03.414Z,21.00
2022-08-18T10:55:03.480Z,21.00
2022-08-18T10:56:02.699Z,21.00
2022-08-18T10:57:02.756Z,21.00
2022-08-18T10:58:02.979Z,21.00
2022-08-18T10:59:03.013Z,21.00
2022-08-18T11:00:03.046Z,21.00
2022-08-18T11:01:03.211Z,21.00
2022-08-18T11:02:03.345Z,21.00
2022-08-18T11:03:21.565Z,21.00
2022-08-18T11:04:05.732Z,21.00
2022-08-18T11:05:03.452Z,21.00
2022-08-18T11:06:03.286Z,21.00
2022-08-18T11:07:03.313Z,21.00
2022-08-18T11:08:03.278Z,21.00
2022-08-18T11:09:03.346Z,21.10
2022-08-18T11:10:13.363Z,21.10
2022-08-18T11:11:27.898Z,21.10
2022-08-18T11:12:03.571Z,21.10
2022-08-18T11:13:07.810Z,21.10
2022-08-18T11:14:02.600Z,21.10
2022-08-18T11:15:21.432Z,21.10
2022-08-18T11:16:02.762Z,21.10
2022-08-18T11:17:02.874Z,21.10
2022-08-18T11:18:02.909Z,21.10
2022-08-18T11:19:03.013Z,21.10
2022-08-18T11:20:03.166Z,21.10
2022-08-18T11:21:03.206Z,21.10
2022-08-18T11:22:03.166Z,21.10
2022-08-18T11:23:03.216Z,21.10
2022-08-18T11:24:03.110Z,21.10
2022-08-18T11:25:03.688Z,21.10
2022-08-18T11:26:03.298Z,21.10
2022-08-18T11:27:03.379Z,21.10
2022-08-18T11:28:03.426Z,21.10
2022-08-18T11:29:03.596Z,21.10
2022-08-18T11:30:02.707Z,21.10
2022-08-18T11:31:02.805Z,21.10
2022-08-18T11:32:03.802Z,21.10
2022-08-18T11:33:03.380Z,21.10
2022-08-18T11:34:03.102Z,21.10
2022-08-18T11:35:03.108Z,21.20
2022-08-18T11:36:03.214Z,21.10
2022-08-18T11:37:03.133Z,21.20
2022-08-18T11:38:03.156Z,21.20
2022-08-18T11:39:03.274Z,21.20
2022-08-18T11:40:03.507Z,21.20
2022-08-18T11:41:09.390Z,21.20
2022-08-18T11:42:03.633Z,21.20
2022-08-18T11:43:03.548Z,21.20
2022-08-18T11:44:02.633Z,21.20
2022-08-18T11:45:02.825Z,21.20
2022-08-18T11:46:02.887Z,21.10
2022-08-18T11:47:02.934Z,21.10
2022-08-18T11:48:02.896Z,21.10
2022-08-18T11:49:04.391Z,21.10
2022-08-18T11:50:03.634Z,21.10
2022-08-18T11:51:02.959Z,21.10
2022-08-18T11:52:03.669Z,21.10
2022-08-18T11:53:02.955Z,21.10
2022-08-18T11:54:02.973Z,21.10
2022-08-18T11:55:14.290Z,21.20
2022-08-18T11:56:04.537Z,21.20
2022-08-18T11:57:03.603Z,21.20
2022-08-18T11:58:03.637Z,21.20
2022-08-18T11:59:02.727Z,21.20
2022-08-18T12:00:02.756Z,21.20
2022-08-18T12:02:02.901Z,21.20
2022-08-18T12:03:03.049Z,21.20
2022-08-18T12:04:03.146Z,21.20
2022-08-18T12:05:08.525Z,21.20
2022-08-18T12:06:03.319Z,21.20
2022-08-18T12:07:04.490Z,21.20
2022-08-18T12:08:04.210Z,21.20
2022-08-18T12:09:02.913Z,21.20
2022-08-18T12:10:17.577Z,21.20
2022-08-18T12:11:02.999Z,21.30
2022-08-18T12:12:03.013Z,21.30
2022-08-18T12:13:03.170Z,21.30
2022-08-18T12:14:29.952Z,21.30
2022-08-18T12:15:11.983Z,21.30
2022-08-18T12:16:03.493Z,21.30
2022-08-18T12:17:04.582Z,21.30
2022-08-18T12:18:03.524Z,21.40
2022-08-18T12:19:03.597Z,21.40
2022-08-18T12:20:02.794Z,21.40
2022-08-18T12:21:03.136Z,21.40
2022-08-18T12:22:04.738Z,21.40
2022-08-18T12:23:02.989Z,21.40
2022-08-18T12:24:03.036Z,21.40
2022-08-18T12:25:03.096Z,21.50
2022-08-18T12:26:03.062Z,21.50
2022-08-18T12:27:03.134Z,21.50
2022-08-18T12:28:03.111Z,21.50
2022-08-18T12:29:03.131Z,21.50
2022-08-18T12:30:03.128Z,21.50
2022-08-18T12:31:03.250Z,21.50
2022-08-18T12:32:03.317Z,21.50
2022-08-18T12:33:05.794Z,21.50
2022-08-18T12:34:03.479Z,21.60
2022-08-18T12:35:07.779Z,21.60
2022-08-18T12:36:04.081Z,21.60
2022-08-18T12:37:02.676Z,21.60
2022-08-18T12:38:11.263Z,21.60
2022-08-18T12:39:03.407Z,21.60
2022-08-18T12:40:06.069Z,21.70
2022-08-18T12:41:03.138Z,21.70
2022-08-18T12:42:02.717Z,21.70
2022-08-18T12:43:02.721Z,21.70
2022-08-18T12:44:02.719Z,21.80
2022-08-18T12:45:02.815Z,21.80
2022-08-18T12:46:03.122Z,21.90
2022-08-18T12:47:02.790Z,21.90
2022-08-18T12:48:04.015Z,22.00
2022-08-18T12:49:02.828Z,22.00
2022-08-18T12:50:03.034Z,22.10
2022-08-18T12:51:05.771Z,22.10
2022-08-18T12:52:03.501Z,22.20
2022-08-18T12:53:03.146Z,22.20
2022-08-18T12:54:03.199Z,22.20
2022-08-18T12:55:03.311Z,22.30
2022-08-18T12:56:03.349Z,22.30